Traveler — WDE9485 — position and weather

sailwx.info

Track history (hours):
 
Tides and Currents Weather Stations Pressure Air Temp Water Temp Dewpoint Dewpoint Depression Visibility Wind Speed Wind Dir Waves Ship Positions

Traveler

Owner: Obel, Patrick R, Marina del Rey, CA. More information available from US FCC via Universal Licensing System and Coast Guard Vessel Documentation Center.

Last reported at 2017-Oct-29 18:37 UTC. Time now 2017-Nov-23 15:09 UTC.
Position N 33°49' W 118°28'.
Warning: this ship's position is 24 days out of date.

Length 19 m; draft 2 m.

Type: Other ship. MMSI: 367417780.

Date/timePositionNaut miles runAvg speedWind from/ knotsBaromVisibWave heightAir tempDewpointWater temp
2017-Oct-29 18:37N 33°49' W 118°28'1 8.4
2017-Oct-29 18:30N 33°48' W 118°28'4 8.5
2017-Oct-29 18:00N 33°44' W 118°27'4 8.5
2017-Oct-29 17:30N 33°40' W 118°26'18 8.1
2017-Oct-29 15:13N 33°22' W 118°19'1 0.6
2017-Oct-29 12:47N 33°21' W 118°19'0 0.0
2017-Oct-29 05:11N 33°21' W 118°19'0 0.0
2017-Oct-29 04:59N 33°21' W 118°19'0 0.0
2017-Oct-28 11:05N 33°21' W 118°19'0 0.1
2017-Oct-28 10:59N 33°21' W 118°19'0 0.0
2017-Oct-28 09:41N 33°21' W 118°19'0 0.0
2017-Oct-28 09:29N 33°21' W 118°19'0 0.0
2017-Oct-28 06:53N 33°21' W 118°19'0 0.0
2017-Oct-28 02:47N 33°21' W 118°19'9 1.6
2017-Oct-27 21:09N 33°30' W 118°21'3 8.9
2017-Oct-27 20:47N 33°33' W 118°21'2 8.8
2017-Oct-27 20:30N 33°35' W 118°22'6 9.2
2017-Oct-27 19:53N 33°41' W 118°24'7 9.1
2017-Oct-27 19:06N 33°48' W 118°27'  
Track history (hours):
 
Tides and Currents Weather Stations Pressure Air Temp Water Temp Dewpoint Dewpoint Depression Visibility Wind Speed Wind Dir Waves Ship Positions

Traveler

Owner: Obel, Patrick R, Marina del Rey, CA. More information available from US FCC via Universal Licensing System and Coast Guard Vessel Documentation Center.

Last reported at 2017-Oct-29 18:37 UTC. Time now 2017-Nov-23 15:09 UTC.
Position N 33°49' W 118°28'.
Warning: this ship's position is 24 days out of date.

Length 19 m; draft 2 m.

Type: Other ship. MMSI: 367417780.

Date/timePositionNaut miles runAvg speedWind from/ knotsBaromVisibWave heightAir tempDewpointWater temp
2017-Oct-29 18:37N 33°49' W 118°28'1 8.4
2017-Oct-29 18:30N 33°48' W 118°28'4 8.5
2017-Oct-29 18:00N 33°44' W 118°27'4 8.5
2017-Oct-29 17:30N 33°40' W 118°26'18 8.1
2017-Oct-29 15:13N 33°22' W 118°19'1 0.6
2017-Oct-29 12:47N 33°21' W 118°19'0 0.0
2017-Oct-29 05:11N 33°21' W 118°19'0 0.0
2017-Oct-29 04:59N 33°21' W 118°19'0 0.0
2017-Oct-28 11:05N 33°21' W 118°19'0 0.1
2017-Oct-28 10:59N 33°21' W 118°19'0 0.0
2017-Oct-28 09:41N 33°21' W 118°19'0 0.0
2017-Oct-28 09:29N 33°21' W 118°19'0 0.0
2017-Oct-28 06:53N 33°21' W 118°19'0 0.0
2017-Oct-28 02:47N 33°21' W 118°19'9 1.6
2017-Oct-27 21:09N 33°30' W 118°21'3 8.9
2017-Oct-27 20:47N 33°33' W 118°21'2 8.8
2017-Oct-27 20:30N 33°35' W 118°22'6 9.2
2017-Oct-27 19:53N 33°41' W 118°24'7 9.1
2017-Oct-27 19:06N 33°48' W 118°27'  

Dump ship's entire track history